Time;durP1;ratioP1;P1;durP2;ratioP2;P2;SDS_P1;SDS_P2;PMS_P1;PMS_P2;Temp;Humidity;BMP_temperature;BMP_pressure;BME280_temperature;BME280_humidity;BME280_pressure;Samples;Min_cycle;Max_cycle;Signal;HPM_P1;HPM_P2
2023/12/23 00:00:37;;;;;;;5.33;1.00;;;7.80;99.90;;;;;;4991322;28;20572;-73
2023/12/23 00:03:03;;;;;;;4.10;1.73;;;7.90;99.90;;;;;;4989287;28;20215;-72
2023/12/23 00:05:29;;;;;;;4.60;1.43;;;7.80;99.90;;;;;;4988579;28;20190;-71
2023/12/23 00:07:55;;;;;;;2.63;0.87;;;7.90;99.90;;;;;;4989994;28;20462;-71
2023/12/23 00:10:20;;;;;;;2.13;1.10;;;7.80;99.90;;;;;;4993036;28;20537;-74
2023/12/23 00:12:46;;;;;;;5.67;1.30;;;7.90;99.90;;;;;;4982189;28;20689;-70
2023/12/23 00:15:12;;;;;;;6.00;1.70;;;7.90;99.90;;;;;;4997661;28;20278;-74
2023/12/23 00:17:37;;;;;;;4.33;1.53;;;7.90;99.90;;;;;;4998413;28;20183;-71
2023/12/23 00:20:04;;;;;;;4.20;1.17;;;7.80;99.90;;;;;;5000278;28;20275;-71
2023/12/23 00:22:29;;;;;;;6.27;1.23;;;7.90;99.90;;;;;;4996768;28;20240;-71
2023/12/23 00:24:55;;;;;;;7.67;1.87;;;7.90;99.90;;;;;;4995262;28;20430;-73
2023/12/23 00:27:20;;;;;;;4.10;1.47;;;7.80;99.90;;;;;;4995370;28;20215;-73
2023/12/23 00:29:46;;;;;;;4.47;1.60;;;7.90;99.90;;;;;;4978230;28;20279;-74
2023/12/23 00:32:12;;;;;;;5.00;1.37;;;7.80;99.90;;;;;;4992274;28;20199;-73
2023/12/23 00:34:37;;;;;;;3.90;1.37;;;7.80;99.90;;;;;;4991814;28;20539;-72
2023/12/23 00:37:03;;;;;;;3.30;1.10;;;7.90;99.90;;;;;;4992331;28;20283;-72
2023/12/23 00:39:29;;;;;;;5.13;1.00;;;7.80;99.90;;;;;;4992118;28;20191;-73
2023/12/23 00:41:54;;;;;;;3.90;0.90;;;7.80;99.90;;;;;;4991960;28;20183;-71
2023/12/23 00:44:20;;;;;;;5.30;1.50;;;7.90;99.90;;;;;;4991812;28;20186;-74
2023/12/23 00:46:46;;;;;;;4.83;1.30;;;7.90;99.90;;;;;;4991473;28;20222;-75
2023/12/23 00:49:11;;;;;;;4.30;1.73;;;7.90;99.90;;;;;;4992195;28;20191;-71
2023/12/23 00:51:37;;;;;;;8.10;1.53;;;7.90;99.90;;;;;;4991486;28;20187;-69
2023/12/23 00:54:03;;;;;;;6.43;1.43;;;7.90;99.90;;;;;;4992506;28;20711;-69
2023/12/23 00:56:28;;;;;;;6.57;1.73;;;7.90;99.90;;;;;;4991321;28;20815;-73
2023/12/23 00:58:54;;;;;;;10.13;1.80;;;7.90;99.90;;;;;;4994256;28;20191;-73
2023/12/23 01:01:20;;;;;;;5.50;1.60;;;7.90;99.90;;;;;;4994422;28;20858;-72
2023/12/23 01:03:45;;;;;;;5.00;1.37;;;7.90;99.90;;;;;;4993541;28;20221;-72
2023/12/23 01:06:11;;;;;;;4.13;1.30;;;7.90;99.90;;;;;;4993629;28;20188;-73
2023/12/23 01:08:37;;;;;;;7.27;2.20;;;7.90;99.90;;;;;;4993989;28;20654;-72
2023/12/23 01:11:03;;;;;;;3.70;1.43;;;7.90;99.90;;;;;;4993546;28;20188;-72
2023/12/23 01:13:28;;;;;;;4.13;1.60;;;7.90;99.90;;;;;;4994192;28;20643;-71
2023/12/23 01:15:54;;;;;;;8.00;1.50;;;7.90;99.90;;;;;;4992838;28;20211;-74
2023/12/23 01:18:20;;;;;;;4.40;1.43;;;7.90;99.90;;;;;;4994185;28;20191;-74
2023/12/23 01:20:46;;;;;;;3.87;1.07;;;7.90;99.90;;;;;;4992208;28;20252;-71
2023/12/23 01:23:12;;;;;;;4.10;1.17;;;7.90;99.90;;;;;;5007282;28;20259;-74
2023/12/23 01:25:38;;;;;;;9.80;1.97;;;7.90;99.90;;;;;;4993562;28;20442;-71
2023/12/23 01:28:06;;;;;;;2.87;1.10;;;7.90;99.90;;;;;;4993455;28;20208;-72
2023/12/23 01:30:35;;;;;;;3.37;2.30;;;7.90;99.90;;;;;;4993412;28;21307;-72
2023/12/23 01:33:01;;;;;;;4.77;1.73;;;7.90;99.90;;;;;;4992450;28;20452;-71
2023/12/23 01:35:27;;;;;;;5.63;1.30;;;7.90;99.90;;;;;;4994620;28;21022;-72
2023/12/23 01:37:53;;;;;;;3.57;1.50;;;7.90;99.90;;;;;;4992858;28;20490;-71
2023/12/23 01:40:19;;;;;;;5.60;1.87;;;7.90;99.90;;;;;;4993393;28;20187;-73
2023/12/23 01:42:44;;;;;;;4.83;1.60;;;7.90;99.90;;;;;;4993813;28;20215;-73
2023/12/23 01:45:10;;;;;;;2.90;1.30;;;8.00;99.90;;;;;;4993692;28;20752;-72
2023/12/23 01:47:40;;;;;;;7.87;1.80;;;7.90;99.90;;;;;;4991995;28;20252;-70
2023/12/23 01:50:09;;;;;;;3.60;1.30;;;7.90;99.90;;;;;;4993187;28;20466;-70
2023/12/23 01:52:38;;;;;;;5.63;1.70;;;7.90;99.90;;;;;;4993999;28;20442;-74
2023/12/23 01:55:08;;;;;;;4.40;1.50;;;7.90;99.90;;;;;;4991537;28;20431;-71
2023/12/23 01:57:34;;;;;;;6.80;2.00;;;7.90;99.90;;;;;;4993787;28;20435;-72
2023/12/23 02:00:00;;;;;;;6.97;2.27;;;7.90;99.90;;;;;;4993229;28;20433;-72
2023/12/23 02:02:28;;;;;;;4.93;1.57;;;7.90;99.90;;;;;;4993833;28;20969;-72
2023/12/23 02:04:55;;;;;;;6.70;1.50;;;7.90;99.90;;;;;;4992333;28;20431;-71
2023/12/23 02:07:21;;;;;;;3.63;1.70;;;7.90;99.90;;;;;;4994482;28;20561;-72
2023/12/23 02:09:46;;;;;;;5.80;1.53;;;7.90;99.90;;;;;;4991777;28;21074;-74
2023/12/23 02:12:18;;;;;;;6.30;1.40;;;7.80;99.90;;;;;;4992555;28;20267;-75
2023/12/23 02:15:03;;;;;;;4.30;2.90;;;7.90;99.90;;;;;;4991601;28;20191;-74
2023/12/23 02:17:29;;;;;;;6.50;1.80;;;7.90;99.90;;;;;;4990698;28;20927;-74
2023/12/23 02:19:54;;;;;;;3.10;1.50;;;7.90;99.90;;;;;;4993636;28;20436;-74
2023/12/23 02:22:20;;;;;;;5.67;1.80;;;7.90;99.90;;;;;;4992088;28;20488;-72
2023/12/23 02:24:46;;;;;;;5.77;1.87;;;7.90;99.90;;;;;;4991449;28;20819;-73
2023/12/23 02:27:14;;;;;;;6.73;2.17;;;7.90;99.90;;;;;;4990698;28;20230;-71
2023/12/23 02:29:41;;;;;;;5.73;1.93;;;7.90;99.90;;;;;;4992433;28;20187;-71
2023/12/23 02:32:09;;;;;;;7.10;2.23;;;7.90;99.90;;;;;;4991023;28;20865;-72
2023/12/23 02:34:36;;;;;;;6.93;1.83;;;7.90;99.90;;;;;;4990685;28;20471;-73
2023/12/23 02:37:02;;;;;;;6.47;1.80;;;7.80;99.90;;;;;;4988957;28;20431;-72
2023/12/23 02:39:28;;;;;;;4.87;2.27;;;7.90;99.90;;;;;;4990770;28;20908;-74
2023/12/23 02:41:53;;;;;;;4.33;1.83;;;7.80;99.90;;;;;;4991780;28;20191;-72
2023/12/23 02:44:19;;;;;;;5.10;1.93;;;7.80;99.90;;;;;;4992007;28;20201;-74
2023/12/23 02:46:45;;;;;;;4.77;1.97;;;7.80;99.90;;;;;;4990386;28;20206;-72
2023/12/23 02:49:10;;;;;;;4.20;1.50;;;7.70;99.90;;;;;;4990813;28;20175;-74
2023/12/23 02:51:36;;;;;;;4.63;1.90;;;7.70;99.90;;;;;;4992329;28;20195;-74
2023/12/23 02:54:02;;;;;;;6.10;1.80;;;7.70;99.90;;;;;;4990952;28;21025;-72
2023/12/23 02:56:29;;;;;;;4.03;1.50;;;7.70;99.90;;;;;;4992041;28;20187;-71
2023/12/23 02:58:55;;;;;;;3.40;1.67;;;7.70;99.90;;;;;;4991340;28;20260;-70
2023/12/23 03:01:21;;;;;;;6.47;1.50;;;7.70;99.90;;;;;;4991678;28;20434;-74
2023/12/23 03:03:46;;;;;;;9.13;2.53;;;7.70;99.90;;;;;;4991196;28;20736;-71
2023/12/23 03:06:14;;;;;;;4.53;1.87;;;7.70;99.90;;;;;;4974824;28;20519;-71
2023/12/23 03:08:40;;;;;;;4.40;3.70;;;7.70;99.90;;;;;;4990425;28;20290;-72
2023/12/23 03:11:05;;;;;;;4.40;1.73;;;7.70;99.90;;;;;;4991692;28;20992;-72
2023/12/23 03:13:31;;;;;;;4.20;2.07;;;7.70;99.90;;;;;;4992689;28;20926;-72
2023/12/23 03:15:57;;;;;;;5.30;2.67;;;7.60;99.90;;;;;;4991017;28;20183;-74
2023/12/23 03:18:22;;;;;;;5.50;2.20;;;7.60;99.90;;;;;;4994913;28;20533;-73
2023/12/23 03:20:49;;;;;;;3.27;2.10;;;7.60;99.90;;;;;;4991111;28;20217;-71
2023/12/23 03:23:15;;;;;;;5.87;2.70;;;7.60;99.90;;;;;;4992031;28;20192;-71
2023/12/23 03:25:41;;;;;;;4.77;2.33;;;7.70;99.90;;;;;;4990689;28;21023;-74
2023/12/23 03:28:06;;;;;;;4.40;2.90;;;7.70;99.90;;;;;;4991450;28;20250;-72
2023/12/23 03:30:32;;;;;;;4.10;3.00;;;7.70;99.90;;;;;;4991436;28;20322;-74
2023/12/23 03:32:58;;;;;;;5.00;3.00;;;7.70;99.90;;;;;;4990698;28;20194;-73
2023/12/23 03:35:23;;;;;;;4.50;3.00;;;7.70;99.90;;;;;;4991911;28;20187;-75
2023/12/23 03:37:49;;;;;;;6.53;4.30;;;7.70;99.90;;;;;;4991137;28;20183;-72
2023/12/23 03:40:15;;;;;;;6.53;4.83;;;7.70;99.90;;;;;;4991599;28;20199;-72
2023/12/23 03:42:40;;;;;;;6.10;5.10;;;7.70;99.90;;;;;;4992343;28;20700;-70
2023/12/23 03:45:07;;;;;;;10.97;5.87;;;7.70;99.90;;;;;;4992799;28;20576;-71
2023/12/23 03:47:34;;;;;;;10.63;6.60;;;7.80;99.90;;;;;;4994285;28;20360;-73
2023/12/23 03:50:00;;;;;;;7.17;6.03;;;7.80;99.90;;;;;;4995166;28;20491;-71
2023/12/23 03:52:26;;;;;;;7.90;5.67;;;7.80;99.90;;;;;;4995252;28;20449;-74
2023/12/23 03:54:51;;;;;;;7.20;5.80;;;7.80;99.90;;;;;;4993895;28;20418;-71
2023/12/23 03:57:17;;;;;;;9.60;5.30;;;7.80;99.90;;;;;;4995278;28;20201;-75
2023/12/23 03:59:43;;;;;;;5.50;4.90;;;7.80;99.90;;;;;;4995192;28;20265;-72
2023/12/23 04:02:08;;;;;;;6.83;4.90;;;7.90;99.90;;;;;;4994235;28;20191;-74
2023/12/23 04:04:37;;;;;;;9.63;5.30;;;7.90;99.90;;;;;;4995768;28;20791;-73
2023/12/23 04:07:03;;;;;;;5.10;4.20;;;7.90;99.90;;;;;;4994395;28;20216;-75
2023/12/23 04:09:29;;;;;;;6.37;5.10;;;7.90;99.90;;;;;;4994898;28;20431;-73
2023/12/23 04:11:55;;;;;;;6.37;5.67;;;7.90;99.90;;;;;;4994984;28;21177;-71
2023/12/23 04:14:21;;;;;;;6.30;5.57;;;8.00;99.90;;;;;;4995371;28;20198;-72
2023/12/23 04:16:47;;;;;;;8.30;6.60;;;8.00;99.90;;;;;;4993695;28;20427;-73
2023/12/23 04:19:13;;;;;;;10.60;6.33;;;8.10;99.90;;;;;;4997658;28;20203;-71
2023/12/23 04:21:39;;;;;;;9.27;6.50;;;8.10;99.90;;;;;;4995283;28;20792;-73
2023/12/23 04:24:05;;;;;;;11.83;6.30;;;8.10;99.90;;;;;;4995478;28;20446;-71
2023/12/23 04:26:32;;;;;;;10.10;6.57;;;8.20;99.90;;;;;;4995828;28;20488;-73
2023/12/23 04:28:58;;;;;;;10.47;7.27;;;8.10;99.90;;;;;;4994042;28;20458;-73
2023/12/23 04:31:24;;;;;;;8.17;6.87;;;8.20;99.90;;;;;;4995481;28;20478;-71
2023/12/23 04:33:49;;;;;;;8.77;6.50;;;8.20;99.90;;;;;;4994755;28;20179;-74
2023/12/23 04:36:17;;;;;;;12.33;6.20;;;8.20;99.90;;;;;;4995567;28;20560;-74
2023/12/23 04:38:44;;;;;;;8.53;6.50;;;8.30;99.90;;;;;;4995719;28;20590;-70
2023/12/23 04:41:09;;;;;;;8.13;6.67;;;8.30;99.90;;;;;;4995548;28;20434;-73
2023/12/23 04:43:35;;;;;;;6.40;5.80;;;8.30;99.90;;;;;;4995633;28;20461;-71
2023/12/23 04:46:02;;;;;;;6.70;5.57;;;8.30;99.90;;;;;;4993742;28;20199;-74
2023/12/23 04:48:28;;;;;;;7.57;4.40;;;8.40;99.90;;;;;;4994129;28;20462;-72
2023/12/23 04:50:54;;;;;;;6.03;5.43;;;8.40;99.90;;;;;;4994907;28;20951;-71
2023/12/23 04:53:25;;;;;;;8.70;6.43;;;8.40;99.90;;;;;;4994899;28;20189;-73
2023/12/23 04:55:51;;;;;;;12.50;8.60;;;8.40;99.90;;;;;;4993329;28;20571;-74
2023/12/23 04:58:16;;;;;;;9.20;7.23;;;8.40;99.90;;;;;;4994627;28;20435;-75
2023/12/23 05:00:42;;;;;;;8.47;6.80;;;8.40;99.90;;;;;;4995880;28;20449;-71
2023/12/23 05:03:08;;;;;;;8.57;7.00;;;8.40;99.90;;;;;;4994070;28;20195;-72
2023/12/23 05:05:34;;;;;;;10.30;6.77;;;8.50;99.90;;;;;;5004483;28;20245;-74
2023/12/23 05:07:59;;;;;;;12.30;7.17;;;8.50;99.90;;;;;;4993367;28;20207;-70
2023/12/23 05:10:25;;;;;;;11.77;7.90;;;8.50;99.90;;;;;;4992965;28;20202;-72
2023/12/23 05:12:51;;;;;;;12.07;8.20;;;8.50;99.90;;;;;;4993151;28;20186;-72
2023/12/23 05:15:16;;;;;;;11.23;9.00;;;8.60;99.90;;;;;;4994071;28;20198;-75
2023/12/23 05:17:42;;;;;;;11.33;9.07;;;8.60;99.90;;;;;;4993892;28;20276;-72
2023/12/23 05:20:09;;;;;;;9.80;8.80;;;8.60;99.90;;;;;;4995523;28;20641;-71
2023/12/23 05:22:35;;;;;;;10.13;8.70;;;8.50;99.90;;;;;;4995602;28;20191;-73
2023/12/23 05:25:01;;;;;;;9.67;8.53;;;8.50;99.90;;;;;;4994967;28;20431;-71
2023/12/23 05:27:27;;;;;;;10.57;9.37;;;8.50;99.90;;;;;;4993730;28;20279;-74
2023/12/23 05:29:55;;;;;;;11.93;9.53;;;8.50;99.90;;;;;;4991745;28;20431;-72
2023/12/23 05:32:21;;;;;;;12.57;8.90;;;8.60;99.90;;;;;;4994543;28;20250;-70
2023/12/23 05:34:46;;;;;;;10.00;9.00;;;8.50;99.90;;;;;;4993908;28;20512;-70
2023/12/23 05:37:12;;;;;;;11.30;8.63;;;8.50;99.90;;;;;;4993856;28;20194;-72
2023/12/23 05:39:39;;;;;;;11.30;8.77;;;8.60;99.90;;;;;;4995197;28;20180;-73
2023/12/23 05:42:05;;;;;;;11.33;10.13;;;8.50;99.90;;;;;;4995028;28;20438;-72
2023/12/23 05:44:30;;;;;;;13.83;10.27;;;8.50;99.90;;;;;;4995771;28;20802;-71
2023/12/23 05:46:56;;;;;;;10.83;9.50;;;8.60;99.90;;;;;;4993491;28;20562;-73
2023/12/23 05:49:22;;;;;;;13.93;10.73;;;8.50;99.90;;;;;;4995765;28;20187;-71
2023/12/23 05:51:48;;;;;;;12.97;9.97;;;8.60;99.90;;;;;;4993505;28;21145;-74
2023/12/23 05:54:13;;;;;;;12.10;10.50;;;8.60;99.90;;;;;;4995520;28;20188;-72
2023/12/23 05:56:39;;;;;;;13.20;10.00;;;8.60;99.90;;;;;;4994419;28;20186;-72
2023/12/23 05:59:05;;;;;;;12.33;10.00;;;8.60;99.90;;;;;;4995593;28;20175;-75
2023/12/23 06:01:30;;;;;;;13.77;9.50;;;8.60;99.90;;;;;;4994215;28;20195;-72
2023/12/23 06:03:56;;;;;;;17.20;9.23;;;8.50;99.90;;;;;;4995732;28;20195;-73
2023/12/23 06:06:22;;;;;;;12.20;8.57;;;8.50;99.90;;;;;;4980105;28;20200;-72
2023/12/23 06:08:48;;;;;;;11.60;8.30;;;8.50;99.90;;;;;;4993303;28;21043;-76
2023/12/23 06:11:13;;;;;;;12.37;8.40;;;8.50;99.90;;;;;;4993867;28;20191;-74
2023/12/23 06:13:40;;;;;;;11.43;8.40;;;8.50;99.90;;;;;;4993513;28;20191;-74
2023/12/23 06:16:06;;;;;;;14.13;9.20;;;8.60;99.90;;;;;;4995264;28;20186;-70
2023/12/23 06:18:33;;;;;;;10.97;7.63;;;8.60;99.90;;;;;;4996621;28;20455;-74
2023/12/23 06:20:59;;;;;;;12.33;8.13;;;8.60;99.90;;;;;;4993934;28;21011;-73
2023/12/23 06:23:24;;;;;;;8.93;6.90;;;8.60;99.90;;;;;;4994365;28;20518;-72
2023/12/23 06:25:50;;;;;;;9.37;7.07;;;8.60;99.90;;;;;;4994695;28;20213;-72
2023/12/23 06:28:16;;;;;;;10.20;6.87;;;8.60;99.90;;;;;;4995686;28;20277;-74
2023/12/23 06:30:42;;;;;;;8.83;7.03;;;8.60;99.90;;;;;;4995733;28;20196;-73
2023/12/23 06:33:08;;;;;;;8.50;6.40;;;8.50;99.90;;;;;;4994045;28;20199;-72
2023/12/23 06:35:33;;;;;;;11.20;6.63;;;8.60;99.90;;;;;;4995745;28;20637;-72
2023/12/23 06:37:59;;;;;;;11.00;6.93;;;8.60;99.90;;;;;;4993397;28;20791;-73
2023/12/23 06:40:29;;;;;;;12.13;9.67;;;8.60;99.90;;;;;;4996246;28;20190;-73
2023/12/23 06:42:55;;;;;;;14.87;7.60;;;8.60;99.90;;;;;;4994804;28;20858;-75
2023/12/23 06:45:20;;;;;;;12.40;8.00;;;8.60;99.90;;;;;;4995166;28;20437;-72
2023/12/23 06:47:46;;;;;;;13.50;8.10;;;8.60;99.90;;;;;;4991854;28;20227;-72
2023/12/23 06:50:12;;;;;;;9.23;7.30;;;8.60;99.90;;;;;;4995580;28;20183;-72
2023/12/23 06:52:38;;;;;;;12.77;8.60;;;8.60;99.90;;;;;;4995738;28;20184;-72
2023/12/23 06:55:04;;;;;;;10.10;7.60;;;8.60;99.90;;;;;;4993617;28;20987;-72
2023/12/23 06:57:30;;;;;;;18.07;8.37;;;8.60;99.90;;;;;;4994998;28;20187;-72
2023/12/23 06:59:58;;;;;;;9.70;7.33;;;8.60;99.90;;;;;;4995546;28;20426;-72
2023/12/23 07:02:24;;;;;;;8.13;6.93;;;8.60;99.90;;;;;;4996349;28;20184;-74
2023/12/23 07:04:50;;;;;;;8.03;6.57;;;8.60;99.90;;;;;;4993834;28;21000;-74
2023/12/23 07:07:16;;;;;;;12.90;6.77;;;8.70;99.90;;;;;;4994098;28;20494;-72
2023/12/23 07:09:42;;;;;;;9.50;6.13;;;8.70;99.90;;;;;;4994591;28;20539;-72
2023/12/23 07:12:08;;;;;;;9.37;6.47;;;8.60;99.90;;;;;;4995038;28;20434;-73
2023/12/23 07:14:34;;;;;;;16.03;7.20;;;8.60;99.90;;;;;;4996109;28;20437;-73
2023/12/23 07:16:59;;;;;;;11.33;6.83;;;8.60;99.90;;;;;;4994800;28;20426;-75
2023/12/23 07:19:25;;;;;;;10.57;6.40;;;8.60;99.90;;;;;;5012512;28;20191;-71
2023/12/23 07:21:53;;;;;;;7.33;6.53;;;8.60;99.90;;;;;;4998057;28;20210;-71
2023/12/23 07:24:21;;;;;;;11.70;6.90;;;8.60;99.90;;;;;;4998137;28;20194;-72
2023/12/23 07:26:47;;;;;;;9.00;6.40;;;8.60;99.90;;;;;;4998627;28;20426;-73
2023/12/23 07:29:13;;;;;;;8.50;6.47;;;8.60;99.90;;;;;;5000061;28;20427;-72
2023/12/23 07:31:39;;;;;;;7.60;5.20;;;8.60;99.90;;;;;;5001247;28;20199;-72
2023/12/23 07:34:04;;;;;;;8.37;5.97;;;8.60;99.90;;;;;;4992082;28;20199;-73
2023/12/23 07:36:30;;;;;;;7.83;5.87;;;8.60;99.90;;;;;;4990988;28;20221;-71
2023/12/23 07:38:56;;;;;;;7.60;5.10;;;8.60;99.90;;;;;;4996524;28;20327;-70
2023/12/23 07:41:21;;;;;;;7.87;5.13;;;8.70;99.90;;;;;;4999387;28;20180;-73
2023/12/23 07:43:47;;;;;;;9.63;5.63;;;8.60;99.90;;;;;;5000465;28;20614;-74
2023/12/23 07:46:13;;;;;;;6.13;5.53;;;8.70;99.90;;;;;;4999491;28;20183;-72
2023/12/23 07:48:38;;;;;;;6.53;5.50;;;8.70;99.90;;;;;;5001237;28;20234;-72
2023/12/23 07:51:09;;;;;;;9.00;6.17;;;8.60;99.90;;;;;;4999439;28;20224;-73
2023/12/23 07:53:35;;;;;;;13.33;6.60;;;8.60;99.90;;;;;;5000786;28;20257;-71
2023/12/23 07:56:01;;;;;;;8.77;5.53;;;8.60;99.90;;;;;;4996752;28;20434;-73
2023/12/23 07:58:27;;;;;;;7.87;5.20;;;8.60;99.90;;;;;;4998008;28;20430;-75
2023/12/23 08:00:53;;;;;;;8.50;5.73;;;8.70;99.90;;;;;;4997840;28;21219;-72
2023/12/23 08:03:18;;;;;;;8.83;5.30;;;8.60;99.90;;;;;;4999449;28;20437;-71
2023/12/23 08:05:44;;;;;;;6.50;5.90;;;8.70;99.90;;;;;;4989697;28;20770;-73
2023/12/23 08:08:10;;;;;;;9.40;5.50;;;8.70;99.90;;;;;;4991656;28;20251;-72
2023/12/23 08:10:39;;;;;;;7.10;4.87;;;8.60;99.90;;;;;;4991577;28;20191;-73
2023/12/23 08:13:06;;;;;;;5.97;5.07;;;8.70;99.90;;;;;;4992499;28;20808;-72
2023/12/23 08:15:32;;;;;;;7.57;5.03;;;8.70;99.90;;;;;;4990189;28;20480;-74
2023/12/23 08:17:58;;;;;;;7.40;5.00;;;8.70;99.90;;;;;;4997002;28;20486;-73
2023/12/23 08:20:24;;;;;;;8.87;5.17;;;8.70;99.90;;;;;;5000872;28;20514;-75
2023/12/23 08:22:50;;;;;;;8.10;4.47;;;8.70;99.90;;;;;;4999876;28;20513;-73
2023/12/23 08:25:15;;;;;;;7.10;5.30;;;8.70;99.90;;;;;;4998611;28;20675;-72
2023/12/23 08:27:41;;;;;;;7.10;4.57;;;8.70;99.90;;;;;;5001779;28;20224;-74
2023/12/23 08:30:08;;;;;;;8.57;4.50;;;8.70;99.90;;;;;;4999750;28;20179;-71
2023/12/23 08:32:34;;;;;;;6.67;4.80;;;8.70;99.90;;;;;;4999833;28;20200;-75
2023/12/23 08:35:00;;;;;;;5.00;4.37;;;8.70;99.90;;;;;;4996160;28;20432;-74
2023/12/23 08:37:26;;;;;;;13.43;5.97;;;8.70;99.90;;;;;;5000687;28;20438;-74
2023/12/23 08:39:53;;;;;;;6.57;4.33;;;8.70;99.90;;;;;;4999250;28;21188;-72
2023/12/23 08:42:19;;;;;;;9.27;3.90;;;8.70;99.90;;;;;;4996875;28;20191;-75
2023/12/23 08:44:45;;;;;;;10.00;5.20;;;8.70;99.90;;;;;;5001040;28;20483;-71
2023/12/23 08:47:12;;;;;;;9.07;4.67;;;8.70;99.90;;;;;;4999584;28;20429;-72
2023/12/23 08:49:39;;;;;;;7.83;5.10;;;8.70;99.90;;;;;;5001153;28;21016;-72
2023/12/23 08:52:06;;;;;;;10.23;4.50;;;8.70;99.90;;;;;;4995427;28;20434;-73
2023/12/23 08:54:31;;;;;;;9.77;5.33;;;8.70;99.90;;;;;;4993140;28;20427;-73
2023/12/23 08:56:57;;;;;;;13.10;4.63;;;8.70;99.90;;;;;;4997016;28;20433;-73
2023/12/23 08:59:23;;;;;;;5.47;3.37;;;8.70;99.90;;;;;;4996773;28;20190;-74
2023/12/23 09:01:48;;;;;;;10.40;4.83;;;8.80;99.90;;;;;;4997370;28;20187;-72
2023/12/23 09:04:14;;;;;;;8.53;3.97;;;8.70;99.90;;;;;;4989954;28;20708;-74
2023/12/23 09:06:40;;;;;;;7.23;3.77;;;8.70;99.90;;;;;;4993697;28;20302;-71
2023/12/23 09:09:06;;;;;;;7.77;3.27;;;8.80;99.90;;;;;;4997957;28;20303;-70
2023/12/23 09:11:32;;;;;;;7.60;3.63;;;8.80;99.90;;;;;;4968136;28;20570;-71
2023/12/23 09:13:58;;;;;;;7.57;4.10;;;8.80;99.90;;;;;;4991400;28;20442;-73
2023/12/23 09:16:23;;;;;;;5.53;3.40;;;8.70;99.90;;;;;;4997122;28;20801;-74
2023/12/23 09:18:49;;;;;;;9.67;3.40;;;8.80;99.90;;;;;;5001466;28;20525;-73
2023/12/23 09:21:15;;;;;;;9.20;3.70;;;8.80;99.90;;;;;;4998564;28;20226;-72
2023/12/23 09:23:40;;;;;;;9.50;3.60;;;8.80;99.90;;;;;;4999328;28;20251;-72
2023/12/23 09:26:06;;;;;;;4.00;2.83;;;8.80;99.90;;;;;;4992574;28;20556;-71
2023/12/23 09:28:32;;;;;;;6.83;3.67;;;8.90;99.90;;;;;;4994003;28;20644;-72
2023/12/23 09:30:57;;;;;;;7.37;3.03;;;8.80;99.90;;;;;;4993295;28;20268;-74
2023/12/23 09:33:23;;;;;;;6.57;2.93;;;8.90;99.90;;;;;;4993577;28;20203;-70
2023/12/23 09:35:48;;;;;;;11.00;4.00;;;8.90;99.90;;;;;;4993846;28;20180;-73
2023/12/23 09:38:14;;;;;;;4.03;3.00;;;8.90;99.90;;;;;;4993808;28;20187;-73
2023/12/23 09:40:40;;;;;;;10.77;3.20;;;8.90;99.90;;;;;;4994095;28;20195;-72
2023/12/23 09:43:06;;;;;;;5.80;2.63;;;8.90;99.90;;;;;;4992721;28;20191;-74
2023/12/23 09:45:36;;;;;;;6.87;3.00;;;8.90;99.90;;;;;;4986661;28;20191;-73
2023/12/23 09:48:02;;;;;;;6.20;2.07;;;9.00;99.90;;;;;;5005514;28;21229;-73
2023/12/23 09:50:28;;;;;;;10.43;3.20;;;8.90;99.90;;;;;;4990366;28;20481;-72
2023/12/23 09:52:57;;;;;;;7.70;2.73;;;9.00;99.90;;;;;;4992250;28;20558;-72
2023/12/23 09:55:24;;;;;;;10.90;3.00;;;9.00;99.90;;;;;;4991537;28;20562;-72
2023/12/23 09:57:50;;;;;;;9.13;3.30;;;9.00;99.90;;;;;;4992613;28;20423;-73
2023/12/23 10:00:16;;;;;;;5.00;3.17;;;9.00;99.90;;;;;;4991329;28;20496;-69
2023/12/23 10:02:42;;;;;;;4.23;2.30;;;9.00;99.90;;;;;;4991781;28;20195;-72
2023/12/23 10:05:08;;;;;;;7.30;2.57;;;9.00;99.90;;;;;;4991380;28;20463;-69
2023/12/23 10:07:34;;;;;;;6.63;2.90;;;9.00;99.90;;;;;;4992343;28;20474;-71
2023/12/23 10:09:59;;;;;;;5.13;3.00;;;9.00;99.90;;;;;;4991691;28;20467;-71
2023/12/23 10:12:25;;;;;;;8.03;2.50;;;9.00;99.90;;;;;;4992484;28;20190;-72
2023/12/23 10:14:51;;;;;;;8.80;2.70;;;9.00;99.90;;;;;;4989952;28;20191;-70
2023/12/23 10:17:17;;;;;;;4.60;2.50;;;9.00;99.90;;;;;;4989529;28;20187;-71
2023/12/23 10:19:43;;;;;;;4.57;1.90;;;9.00;99.90;;;;;;4992979;28;20438;-71
2023/12/23 10:22:09;;;;;;;6.20;2.33;;;9.00;99.90;;;;;;4988687;28;20187;-71
2023/12/23 10:24:37;;;;;;;5.77;2.07;;;9.10;99.90;;;;;;4992015;28;20652;-73
2023/12/23 10:27:04;;;;;;;5.97;3.37;;;9.10;99.90;;;;;;4991554;28;20191;-74
2023/12/23 10:29:33;;;;;;;5.07;2.30;;;9.00;99.90;;;;;;4993123;28;20438;-71
2023/12/23 10:32:04;;;;;;;4.90;3.53;;;9.10;99.90;;;;;;4992143;28;20450;-72
2023/12/23 10:34:43;;;;;;;6.43;2.83;;;9.10;99.90;;;;;;4992994;28;20435;-72
2023/12/23 10:37:10;;;;;;;6.83;3.93;;;9.10;99.90;;;;;;4992583;28;20943;-71
2023/12/23 10:39:49;;;;;;;6.20;2.33;;;9.10;99.90;;;;;;4993935;28;21012;-71
2023/12/23 10:42:20;;;;;;;6.63;2.40;;;9.10;99.90;;;;;;4993323;28;20435;-73
2023/12/23 10:44:48;;;;;;;4.57;2.37;;;9.10;99.90;;;;;;4993794;28;20450;-73
2023/12/23 10:47:17;;;;;;;6.00;3.30;;;9.10;99.90;;;;;;4992096;28;21112;-73
2023/12/23 10:49:46;;;;;;;4.43;3.10;;;9.10;99.90;;;;;;5008509;28;20958;-73
2023/12/23 10:52:13;;;;;;;6.40;2.67;;;9.10;99.90;;;;;;4993399;28;20800;-72
2023/12/23 10:54:39;;;;;;;4.53;2.93;;;9.10;99.90;;;;;;4992254;28;20430;-71
2023/12/23 10:57:06;;;;;;;5.80;2.97;;;9.10;99.90;;;;;;4993367;28;20425;-72
2023/12/23 10:59:32;;;;;;;8.20;2.73;;;9.10;99.90;;;;;;4994509;28;20220;-73
2023/12/23 11:02:00;;;;;;;3.77;2.90;;;9.10;99.90;;;;;;5091392;27;20520;-72
2023/12/23 11:04:28;;;;;;;3.80;2.37;;;9.10;99.90;;;;;;4976945;28;20179;-72
2023/12/23 11:06:56;;;;;;;7.43;3.00;;;9.10;99.90;;;;;;4991784;28;20442;-72
2023/12/23 11:09:24;;;;;;;10.60;4.47;;;9.10;99.90;;;;;;4992361;28;20513;-70
2023/12/23 11:11:50;;;;;;;6.77;3.80;;;9.10;99.90;;;;;;4992570;28;20427;-70
2023/12/23 11:14:15;;;;;;;6.00;3.33;;;9.10;99.90;;;;;;4992956;28;20427;-73
2023/12/23 11:16:44;;;;;;;3.90;2.90;;;9.10;99.90;;;;;;4994232;28;20434;-73
2023/12/23 11:19:10;;;;;;;4.80;3.13;;;9.10;99.90;;;;;;4995301;28;20198;-73
2023/12/23 11:21:35;;;;;;;4.77;3.07;;;9.10;99.90;;;;;;4992976;28;20432;-73
2023/12/23 11:24:02;;;;;;;6.60;3.57;;;9.10;99.90;;;;;;4993209;28;20262;-72
2023/12/23 11:26:40;;;;;;;3.97;2.50;;;9.10;99.90;;;;;;4992927;28;20187;-73
2023/12/23 11:29:06;;;;;;;6.77;3.00;;;9.10;99.90;;;;;;4992493;28;20826;-72
2023/12/23 11:31:32;;;;;;;5.30;2.60;;;9.10;99.90;;;;;;4994694;28;20542;-69
2023/12/23 11:33:59;;;;;;;7.10;3.27;;;9.10;99.90;;;;;;4992396;28;20999;-71
2023/12/23 11:36:25;;;;;;;5.67;2.93;;;9.10;99.90;;;;;;4993516;28;20435;-69
2023/12/23 11:38:52;;;;;;;10.40;3.43;;;9.10;99.90;;;;;;4993711;28;20432;-72
2023/12/23 11:41:19;;;;;;;4.50;2.77;;;9.10;99.90;;;;;;4988030;28;20439;-72
2023/12/23 11:43:46;;;;;;;5.80;2.83;;;9.10;99.90;;;;;;4994258;28;20441;-72
2023/12/23 11:46:13;;;;;;;4.20;2.90;;;9.00;99.90;;;;;;4991870;28;20435;-72
2023/12/23 11:48:38;;;;;;;6.00;2.73;;;9.10;99.90;;;;;;4993162;28;20462;-72
2023/12/23 11:51:06;;;;;;;9.20;2.90;;;9.10;99.90;;;;;;4986872;28;20443;-73
2023/12/23 11:53:33;;;;;;;4.30;3.00;;;9.10;99.90;;;;;;4992891;28;20549;-73
2023/12/23 11:55:59;;;;;;;5.30;3.00;;;9.10;99.90;;;;;;4988175;28;20442;-72
2023/12/23 11:58:26;;;;;;;6.50;3.33;;;9.00;99.90;;;;;;4990699;28;20430;-73
2023/12/23 12:00:54;;;;;;;7.47;3.27;;;9.10;99.90;;;;;;4992946;28;20422;-73
2023/12/23 12:03:20;;;;;;;4.63;3.70;;;9.10;99.90;;;;;;4991739;28;20438;-72
2023/12/23 12:05:46;;;;;;;7.30;4.20;;;9.00;99.90;;;;;;4991987;28;20469;-73
2023/12/23 12:08:12;;;;;;;6.67;4.10;;;9.10;99.90;;;;;;4991049;28;20562;-73
2023/12/23 12:10:37;;;;;;;7.20;4.27;;;9.10;99.90;;;;;;4984337;28;20558;-73
2023/12/23 12:13:03;;;;;;;6.60;3.90;;;9.00;99.90;;;;;;4994620;28;20195;-73
2023/12/23 12:15:29;;;;;;;9.67;3.90;;;9.00;99.90;;;;;;4995276;28;20189;-73
2023/12/23 12:17:55;;;;;;;3.90;3.47;;;9.00;99.90;;;;;;4998668;28;20203;-73
2023/12/23 12:20:23;;;;;;;8.30;3.83;;;9.00;99.90;;;;;;4994364;28;20191;-73
2023/12/23 12:22:48;;;;;;;5.77;3.20;;;9.10;99.90;;;;;;4993993;28;20496;-73
2023/12/23 12:25:15;;;;;;;5.97;2.97;;;9.00;99.90;;;;;;4995033;28;21074;-73
2023/12/23 12:27:42;;;;;;;5.27;3.03;;;9.00;99.90;;;;;;4996542;28;20980;-73
2023/12/23 12:30:10;;;;;;;5.60;3.00;;;9.00;99.90;;;;;;4995744;28;20450;-73
2023/12/23 12:32:42;;;;;;;6.50;2.97;;;9.10;99.90;;;;;;4997838;28;20707;-73
2023/12/23 12:35:11;;;;;;;7.20;2.70;;;9.10;99.90;;;;;;4996043;28;20464;-74
2023/12/23 12:37:37;;;;;;;6.13;2.90;;;9.10;99.90;;;;;;4992969;28;20462;-73
2023/12/23 12:40:03;;;;;;;5.50;2.83;;;9.10;99.90;;;;;;4995471;28;20430;-73
2023/12/23 12:42:29;;;;;;;6.70;1.90;;;9.10;99.90;;;;;;4996432;28;20433;-73
2023/12/23 12:45:02;;;;;;;5.63;2.33;;;9.10;99.90;;;;;;4996650;28;20439;-73
2023/12/23 12:47:30;;;;;;;3.17;2.30;;;9.00;99.90;;;;;;4997537;28;20218;-73
2023/12/23 12:50:03;;;;;;;6.20;2.33;;;9.10;99.90;;;;;;4994779;28;20458;-73